首页
METAR-TAF:

METAR-TAF

机场 :

宮崎機場

宮崎, 日本

纬度: 31-52N, 经度: 131-27E, 海拔: 6米

当前天气观测

该预报发布于28分钟前的21:07 UTC
风速2节,风向
温度 22°C
湿度 100%
气压 1004 hPa
能見度: 2500
轻雾

METAR: RJFM 152107Z AUTO 19002KT 2500 R27/1600VP2000U BR NCD 22/22 Q1004 RMK A2967

时间: 06:35 (21:35 UTC)

预报

该预报发布于4小时和28分钟前的17:07 UTC
预报有效从15日的 18点(UTC)到 17日的 00点(UTC)
风速12节,风向西
能见度10公里或以上
少量云层高于3000英尺
成为
从 16日的 00点(UTC)到 16日的 02点(UTC)
风速10节,风向东南
成为
从 16日的 06点(UTC)到 16日的 09点(UTC)
风速10节,风向西

TAF: RJFM 151707Z 1518/1700 27012KT 9999 FEW030 BECMG 1600/1602 13010KT BECMG 1606/1609 26010KT

超过4000个机场的气象观测和天气预报(METAR&TAF报告)。

可查询的气象台以黄色和红色小点在地图上表示。

将鼠标移到小点上方,可查看气象台名称。

然后点击查看天气观测和预报。

如需切换地图:点击带黑十字的绿色按钮放大地图;点击带横线的绿色按钮缩小地图;或者点击绿色箭头查看邻近地区的地图。


METAR-TAF: